Aérodrome :
LOGIN :

S'inscrire | Disclaimer

   EN    FR    IT 

 










Légende :    VFR   VFR Marginal   IFR   IFR Intensif   IFR Très Intensif
Visi : 
Plafond : 
>= 8 km
>= 3000ft
5 à 8 km
1000 à 3000 ft
1500m à 5 km
500 à 1000 ft
800 à 1500m
200 à 500 ft
< 800m
< 200 ft
Symboles :   Orages  Brouillard  Fortes neiges  Fortes précipitations  Vent > 20 kt
SIGMETs :   Divers  Orages  Givrage  Turbulence  Onde Orograph.  Cendres Volcan.






- Altitude de l'aérodrome : 784 ft
- Code IATA : TZL


LQTZ - Tuzla

DERNIER METAR :
  • 270730Z VRB01KT 9999 FEW045 18/17 Q1017

METARs EXPIRÉS :
  • 270700Z 13003KT 100V160 9999 FEW045 15/15 Q1017
  • 270630Z 22003KT 170V250 9999 SCT045 14/14 Q1017
  • 270600Z VRB01KT 9999 BKN045 13/13 Q1017
  • 270530Z VRB02KT 9999 SCT050 11/11 Q1017
  • 270500Z VRB01KT 9999 FEW050 10/10 Q1017

TAF TAF LQTZ
Valide du 27 à 06h jusqu'au 28 à 06h UTC


270500Z 2706/2806 27005KT CAVOK TX29/2713Z TN14/2804Z
PROB40
TEMPO 2712/2722 33015KT 4000 TSRA FEW035CB SCT040
PROB30
TEMPO 2722/2806 4000 -RA BR BKN012 OVC040



MET'MAP, la Météo Aéronautique d'un coup d'oeil ! - Copyright ORBIFLY Décembre 2007 - Disclaimer

ORBIFLY MET'MAP TEAM :

Programmation & Développement : Alexandra Zaïnal
Sur une idée originale de : Baudouin d'Aumeries
Assistance à la programmation : Marc-Olivier Méhu
Soutien technique & logistique : Manuel Goepfert

Contact : metmap@orbifly.com




SOURCES & CREDITS :

   NOAA